createdAt,value
2023-01-23T00:01:27.929Z,1.48
2023-01-23T00:03:55.541Z,1.49
2023-01-23T00:06:23.289Z,1.48
2023-01-23T00:08:50.224Z,1.44
2023-01-23T00:11:20.486Z,1.32
2023-01-23T00:13:48.066Z,1.28
2023-01-23T00:16:21.197Z,1.22
2023-01-23T00:18:49.199Z,1.32
2023-01-23T00:21:18.527Z,1.39
2023-01-23T00:23:49.713Z,1.31
2023-01-23T00:26:20.262Z,1.31
2023-01-23T00:28:48.081Z,1.40
2023-01-23T00:31:18.627Z,1.39
2023-01-23T00:33:46.338Z,1.17
2023-01-23T00:36:15.165Z,1.20
2023-01-23T00:38:42.630Z,1.24
2023-01-23T00:41:09.651Z,1.25
2023-01-23T00:43:36.517Z,1.31
2023-01-23T00:46:03.472Z,1.28
2023-01-23T00:48:30.663Z,1.24
2023-01-23T00:50:57.538Z,1.22
2023-01-23T00:53:24.948Z,1.21
2023-01-23T00:55:51.777Z,1.20
2023-01-23T00:58:18.614Z,1.19
2023-01-23T01:00:45.608Z,1.16
2023-01-23T01:03:12.976Z,1.22
2023-01-23T01:05:40.091Z,1.22
2023-01-23T01:08:07.031Z,1.24
2023-01-23T01:10:34.370Z,1.27
2023-01-23T01:13:03.120Z,1.32
2023-01-23T01:15:30.234Z,1.35
2023-01-23T01:17:58.198Z,1.35
2023-01-23T01:20:27.588Z,1.21
2023-01-23T01:22:56.722Z,1.24
2023-01-23T01:25:23.834Z,1.36
2023-01-23T01:27:51.151Z,1.25
2023-01-23T01:30:19.292Z,1.08
2023-01-23T01:32:46.327Z,1.19
2023-01-23T01:35:13.278Z,1.16
2023-01-23T01:37:41.182Z,1.10
2023-01-23T01:40:12.904Z,1.09
2023-01-23T01:42:50.483Z,1.12
2023-01-23T01:45:54.963Z,1.08
2023-01-23T01:48:26.159Z,1.29
2023-01-23T01:50:53.731Z,1.32
2023-01-23T01:53:23.625Z,1.18
2023-01-23T01:55:50.560Z,1.37
2023-01-23T01:58:18.607Z,1.33
2023-01-23T02:00:45.538Z,1.53
2023-01-23T02:03:12.813Z,1.30
2023-01-23T02:05:43.703Z,1.40
2023-01-23T02:08:52.339Z,1.57
2023-01-23T02:11:19.330Z,1.56
2023-01-23T02:13:46.254Z,1.52
2023-01-23T02:16:15.966Z,1.33
2023-01-23T02:18:46.123Z,1.43
2023-01-23T02:21:15.409Z,1.31
2023-01-23T02:24:13.158Z,1.34
2023-01-23T02:26:44.629Z,1.49
2023-01-23T02:29:12.923Z,1.51
2023-01-23T02:31:40.748Z,1.43
2023-01-23T02:34:12.051Z,1.47
2023-01-23T02:36:41.688Z,1.48
2023-01-23T02:39:10.311Z,1.58
2023-01-23T02:41:46.153Z,1.48
2023-01-23T02:44:23.078Z,1.55
2023-01-23T02:46:49.901Z,1.38
2023-01-23T02:49:16.869Z,1.57
2023-01-23T02:51:43.763Z,1.41
2023-01-23T02:54:10.567Z,1.47
2023-01-23T02:56:37.438Z,1.50
2023-01-23T02:59:04.488Z,1.46
2023-01-23T03:01:31.824Z,1.77
2023-01-23T03:03:58.661Z,1.43
2023-01-23T03:06:25.565Z,1.47
2023-01-23T03:08:52.397Z,1.47
2023-01-23T03:11:19.563Z,1.37
2023-01-23T03:13:47.640Z,1.43
2023-01-23T03:16:14.662Z,1.41
2023-01-23T03:18:53.590Z,1.43
2023-01-23T03:21:21.808Z,1.43
2023-01-23T03:23:48.702Z,1.46
2023-01-23T03:26:16.152Z,1.39
2023-01-23T03:28:42.984Z,1.41
2023-01-23T03:31:11.011Z,1.39
2023-01-23T03:33:37.853Z,1.36
2023-01-23T03:36:07.755Z,1.36
2023-01-23T03:38:34.713Z,1.47
2023-01-23T03:41:01.597Z,1.44
2023-01-23T03:43:32.273Z,1.43
2023-01-23T03:45:59.783Z,1.43
2023-01-23T03:48:27.133Z,1.26
2023-01-23T03:50:53.989Z,1.23
2023-01-23T03:53:20.843Z,1.32
2023-01-23T03:55:47.941Z,1.39
2023-01-23T03:58:15.109Z,1.26
2023-01-23T04:00:42.008Z,1.32
2023-01-23T04:03:09.278Z,1.31
2023-01-23T04:05:36.173Z,1.41
2023-01-23T04:08:03.933Z,1.51
2023-01-23T04:10:32.434Z,1.38
2023-01-23T04:12:59.419Z,1.27
2023-01-23T04:15:26.223Z,1.35
2023-01-23T04:17:53.093Z,1.20
2023-01-23T04:20:20.176Z,1.28
2023-01-23T04:22:47.421Z,1.23
2023-01-23T04:25:14.352Z,1.51
2023-01-23T04:27:41.161Z,1.55
2023-01-23T04:30:08.953Z,1.53
2023-01-23T04:32:35.851Z,1.46
2023-01-23T04:35:02.721Z,1.39
2023-01-23T04:37:29.707Z,1.56
2023-01-23T04:39:59.165Z,1.34
2023-01-23T04:42:25.963Z,1.39
2023-01-23T04:44:52.822Z,1.39
2023-01-23T04:47:19.742Z,1.37
2023-01-23T04:49:46.582Z,1.80
2023-01-23T04:52:13.528Z,1.57
2023-01-23T04:54:40.346Z,1.52
2023-01-23T04:57:07.271Z,1.44
2023-01-23T04:59:34.097Z,1.47
2023-01-23T05:02:00.927Z,1.60
2023-01-23T05:04:28.383Z,1.56
2023-01-23T05:06:55.204Z,1.72
2023-01-23T05:09:22.030Z,1.79
2023-01-23T05:11:48.873Z,1.56
2023-01-23T05:14:15.755Z,1.48
2023-01-23T05:16:42.671Z,1.61
2023-01-23T05:19:09.528Z,1.57
2023-01-23T05:21:36.469Z,1.84
2023-01-23T05:24:04.018Z,1.61
2023-01-23T05:26:30.965Z,1.51
2023-01-23T05:28:57.914Z,1.25
2023-01-23T05:31:24.943Z,1.29
2023-01-23T05:33:51.917Z,1.33
2023-01-23T05:36:18.860Z,1.36
2023-01-23T05:38:45.786Z,1.23
2023-01-23T05:41:12.804Z,1.19
2023-01-23T05:43:39.665Z,1.27
2023-01-23T05:46:06.586Z,1.58
2023-01-23T05:48:33.521Z,1.38
2023-01-23T05:51:03.341Z,1.56
2023-01-23T05:53:30.298Z,1.24
2023-01-23T05:55:57.266Z,1.58
2023-01-23T05:58:24.297Z,1.43
2023-01-23T06:00:51.119Z,1.62
2023-01-23T06:03:17.947Z,1.58
2023-01-23T06:05:44.783Z,1.73
2023-01-23T06:08:11.643Z,1.55
2023-01-23T06:10:38.691Z,1.71
2023-01-23T06:13:05.816Z,1.57
2023-01-23T06:15:32.666Z,1.59
2023-01-23T06:17:59.629Z,1.75
2023-01-23T06:20:26.649Z,1.61
2023-01-23T06:22:53.598Z,1.89
2023-01-23T06:25:20.472Z,1.80
2023-01-23T06:27:47.316Z,1.91
2023-01-23T06:30:14.573Z,2.14
2023-01-23T06:32:41.959Z,2.19
2023-01-23T06:35:09.331Z,1.86
2023-01-23T06:37:36.474Z,1.69
2023-01-23T06:40:04.184Z,1.95
2023-01-23T06:42:30.969Z,1.81
2023-01-23T06:44:57.888Z,1.85
2023-01-23T06:47:24.752Z,2.03
2023-01-23T06:49:51.639Z,2.05
2023-01-23T06:52:18.593Z,1.83
2023-01-23T06:54:45.525Z,1.90
2023-01-23T06:57:12.499Z,1.74
2023-01-23T06:59:39.428Z,1.66
2023-01-23T07:02:06.724Z,1.70
2023-01-23T07:04:33.715Z,1.80
2023-01-23T07:07:00.682Z,1.95
2023-01-23T07:09:27.666Z,1.98
2023-01-23T07:11:54.616Z,1.89
2023-01-23T07:14:21.963Z,2.01
2023-01-23T07:16:48.892Z,2.04
2023-01-23T07:19:15.710Z,1.97
2023-01-23T07:21:42.336Z,2.04
2023-01-23T07:24:09.020Z,2.06
2023-01-23T07:26:35.634Z,2.10
2023-01-23T07:29:02.246Z,2.32
2023-01-23T07:31:28.954Z,2.46
2023-01-23T07:33:55.559Z,2.59
2023-01-23T07:36:22.161Z,2.71
2023-01-23T07:38:49.036Z,2.68
2023-01-23T07:41:15.722Z,2.74
2023-01-23T07:43:42.328Z,2.83
2023-01-23T07:46:08.968Z,2.96
2023-01-23T07:48:37.095Z,3.13
2023-01-23T07:51:04.586Z,3.00
2023-01-23T07:53:31.354Z,3.23
2023-01-23T07:55:57.965Z,3.30
2023-01-23T07:58:24.598Z,3.42
2023-01-23T08:00:51.368Z,3.70
2023-01-23T08:03:18.051Z,3.79
2023-01-23T08:05:49.236Z,4.08
2023-01-23T08:08:15.964Z,3.91
2023-01-23T08:10:42.568Z,4.16
2023-01-23T08:13:09.659Z,4.08
2023-01-23T08:15:37.596Z,4.06
2023-01-23T08:18:04.549Z,4.61
2023-01-23T08:20:31.142Z,4.66
2023-01-23T08:22:57.761Z,4.53
2023-01-23T08:25:24.478Z,4.58
2023-01-23T08:27:51.083Z,4.55
2023-01-23T08:30:18.181Z,4.82
2023-01-23T08:32:44.922Z,5.14
2023-01-23T08:35:11.540Z,5.02
2023-01-23T08:37:38.230Z,5.27
2023-01-23T08:40:05.412Z,5.33
2023-01-23T08:42:32.122Z,5.35
2023-01-23T08:44:58.697Z,5.23
2023-01-23T08:47:25.314Z,5.15
2023-01-23T08:49:51.943Z,5.46
2023-01-23T08:52:18.633Z,5.27
2023-01-23T08:54:45.221Z,5.28
2023-01-23T08:57:11.860Z,5.37
2023-01-23T08:59:38.432Z,5.70
2023-01-23T09:02:05.046Z,5.72
2023-01-23T09:04:31.788Z,5.53
2023-01-23T09:06:58.376Z,5.70
2023-01-23T09:09:25.033Z,5.76
2023-01-23T09:11:51.828Z,5.89
2023-01-23T09:14:18.414Z,5.60
2023-01-23T09:16:45.059Z,5.90
2023-01-23T09:19:11.966Z,5.92
2023-01-23T09:21:38.829Z,6.06
2023-01-23T09:24:05.687Z,6.04
2023-01-23T09:26:32.272Z,5.90
2023-01-23T09:28:59.086Z,6.22
2023-01-23T09:31:26.043Z,6.25
2023-01-23T09:33:52.879Z,6.29
2023-01-23T09:36:27.477Z,6.25
2023-01-23T09:39:00.879Z,6.22
2023-01-23T09:41:28.620Z,6.32
2023-01-23T09:44:28.384Z,6.27
2023-01-23T09:47:00.630Z,6.35
2023-01-23T09:49:35.358Z,6.64
2023-01-23T09:52:19.741Z,6.97
2023-01-23T09:54:59.966Z,7.03
2023-01-23T09:57:35.459Z,7.28
2023-01-23T10:00:05.883Z,7.48
2023-01-23T10:02:33.092Z,7.41
2023-01-23T10:04:59.916Z,7.54
2023-01-23T10:07:47.922Z,7.61
2023-01-23T10:10:32.311Z,7.54
2023-01-23T10:13:16.644Z,7.39
2023-01-23T10:16:02.125Z,7.22
2023-01-23T10:18:42.374Z,7.45
2023-01-23T10:21:27.983Z,7.65
2023-01-23T10:24:06.092Z,7.91
2023-01-23T10:26:44.000Z,7.86
2023-01-23T10:29:25.258Z,7.87
2023-01-23T10:31:55.892Z,7.90
2023-01-23T10:34:32.719Z,8.04
2023-01-23T10:37:19.672Z,8.21
2023-01-23T10:39:55.746Z,8.05
2023-01-23T10:42:26.034Z,8.01
2023-01-23T10:44:54.654Z,8.04
2023-01-23T10:47:37.138Z,7.98
2023-01-23T10:50:06.812Z,7.83
2023-01-23T10:52:42.992Z,7.84
2023-01-23T10:55:19.230Z,7.87
2023-01-23T10:57:49.194Z,7.95
2023-01-23T11:00:27.083Z,8.07
2023-01-23T11:02:54.071Z,8.08
2023-01-23T11:05:54.715Z,8.38
2023-01-23T11:08:29.500Z,8.68
2023-01-23T11:11:14.798Z,8.74
2023-01-23T11:13:43.801Z,8.52
2023-01-23T11:16:21.924Z,8.65
2023-01-23T11:19:05.410Z,8.35
2023-01-23T11:21:59.766Z,8.37
2023-01-23T11:24:39.702Z,8.57
2023-01-23T11:27:13.603Z,8.58
2023-01-23T11:30:24.948Z,8.72
2023-01-23T11:32:59.257Z,8.84
2023-01-23T11:35:48.499Z,8.63
2023-01-23T11:38:19.728Z,8.77
2023-01-23T11:40:51.602Z,9.14
2023-01-23T11:43:19.060Z,8.91
2023-01-23T11:45:51.099Z,9.28
2023-01-23T11:48:23.183Z,9.26
2023-01-23T11:50:55.745Z,8.96
2023-01-23T11:53:44.573Z,9.07
2023-01-23T11:56:34.810Z,9.00
2023-01-23T11:59:38.589Z,9.22
2023-01-23T12:02:10.740Z,9.16
2023-01-23T12:04:55.613Z,9.27
2023-01-23T12:07:24.550Z,9.28
2023-01-23T12:10:03.216Z,9.35
2023-01-23T12:12:48.443Z,9.61
2023-01-23T12:15:36.975Z,9.45
2023-01-23T12:18:22.060Z,9.37
2023-01-23T12:21:25.959Z,9.59
2023-01-23T12:24:11.354Z,9.48
2023-01-23T12:27:06.135Z,9.63
2023-01-23T12:30:06.936Z,9.27
2023-01-23T12:33:10.609Z,9.02
2023-01-23T12:35:43.357Z,9.23
2023-01-23T12:38:18.664Z,9.13
2023-01-23T12:40:53.047Z,9.27
2023-01-23T12:43:35.417Z,9.36
2023-01-23T12:46:10.747Z,9.37
2023-01-23T12:48:59.974Z,9.38
2023-01-23T12:51:38.657Z,9.45
2023-01-23T12:54:17.174Z,9.52
2023-01-23T12:56:45.101Z,9.41
2023-01-23T12:59:11.863Z,9.41
2023-01-23T13:01:59.787Z,9.66
2023-01-23T13:05:05.425Z,9.87
2023-01-23T13:07:35.049Z,9.65
2023-01-23T13:10:07.201Z,9.86
2023-01-23T13:12:34.548Z,9.92
2023-01-23T13:15:17.365Z,9.92
2023-01-23T13:17:57.972Z,9.76
2023-01-23T13:20:34.285Z,9.90
2023-01-23T13:23:25.337Z,9.80
2023-01-23T13:26:16.879Z,9.72
2023-01-23T13:28:54.291Z,9.73
2023-01-23T13:31:32.889Z,9.76
2023-01-23T13:34:14.677Z,9.63
2023-01-23T13:36:46.562Z,9.51
2023-01-23T13:39:28.151Z,9.41
2023-01-23T13:42:13.001Z,9.41
2023-01-23T13:45:16.743Z,9.28
2023-01-23T14:21:49.688Z,8.69
2023-01-23T14:24:25.541Z,8.39
2023-01-23T14:27:02.501Z,8.47
2023-01-23T14:29:31.316Z,8.46
2023-01-23T14:31:57.911Z,8.51
2023-01-23T14:34:26.178Z,8.59
2023-01-23T14:37:00.149Z,8.58
2023-01-23T14:39:28.785Z,8.18
2023-01-23T14:42:02.049Z,8.10
2023-01-23T14:44:41.634Z,8.06
2023-01-23T14:47:26.140Z,8.23
2023-01-23T14:49:54.513Z,8.22
2023-01-23T14:52:29.549Z,8.20
2023-01-23T14:54:59.135Z,7.92
2023-01-23T14:57:28.780Z,7.96
2023-01-23T14:59:57.450Z,7.94
2023-01-23T15:02:29.994Z,7.84
2023-01-23T15:05:11.976Z,8.22
2023-01-23T15:07:53.458Z,8.10
2023-01-23T15:10:20.154Z,8.13
2023-01-23T15:13:08.495Z,7.84
2023-01-23T15:15:35.696Z,7.96
2023-01-23T15:18:06.095Z,8.12
2023-01-23T15:20:36.776Z,8.11
2023-01-23T15:23:26.415Z,8.16
2023-01-23T15:26:09.083Z,8.12
2023-01-23T15:28:47.880Z,8.16
2023-01-23T15:31:26.710Z,8.05
2023-01-23T15:33:55.017Z,7.86
2023-01-23T15:36:28.218Z,7.98
2023-01-23T15:38:57.345Z,7.87
2023-01-23T15:41:45.021Z,8.24
2023-01-23T15:44:20.415Z,7.78
2023-01-23T15:46:47.298Z,7.75
2023-01-23T15:49:24.877Z,7.93
2023-01-23T15:51:52.286Z,7.90
2023-01-23T15:54:32.576Z,7.49
2023-01-23T15:57:07.585Z,7.73
2023-01-23T15:59:35.764Z,7.98
2023-01-23T16:02:02.474Z,8.19
2023-01-23T16:04:29.247Z,8.13
2023-01-23T16:07:25.916Z,7.83
2023-01-23T16:09:52.964Z,7.48
2023-01-23T16:12:20.696Z,7.69
2023-01-23T16:14:48.158Z,7.35
2023-01-23T16:17:17.171Z,7.92
2023-01-23T16:19:44.482Z,8.14
2023-01-23T16:22:23.822Z,7.97
2023-01-23T16:24:50.611Z,8.29
2023-01-23T16:27:19.289Z,8.18
2023-01-23T16:29:46.518Z,8.10
2023-01-23T16:32:13.272Z,8.02
2023-01-23T16:34:40.052Z,7.91
2023-01-23T16:37:14.704Z,7.84
2023-01-23T16:39:43.291Z,7.76
2023-01-23T16:42:23.041Z,7.46
2023-01-23T16:44:50.876Z,7.38
2023-01-23T16:47:17.665Z,7.42
2023-01-23T16:49:51.923Z,7.45
2023-01-23T16:52:20.825Z,7.20
2023-01-23T16:54:47.500Z,7.04
2023-01-23T16:57:19.420Z,7.44
2023-01-23T16:59:46.575Z,7.52
2023-01-23T17:02:29.712Z,7.20
2023-01-23T17:04:56.390Z,7.28
2023-01-23T17:07:23.123Z,7.12
2023-01-23T17:09:49.771Z,7.05
2023-01-23T17:12:23.296Z,7.30
2023-01-23T17:14:51.030Z,7.49
2023-01-23T17:17:36.889Z,7.37
2023-01-23T17:20:04.671Z,7.07
2023-01-23T17:22:37.889Z,7.09
2023-01-23T17:25:12.941Z,7.09
2023-01-23T17:27:45.368Z,6.84
2023-01-23T17:30:22.345Z,7.08
2023-01-23T17:32:52.976Z,6.52
2023-01-23T17:35:25.055Z,6.58
2023-01-23T17:37:51.993Z,6.67
2023-01-23T17:40:19.113Z,6.99
2023-01-23T17:42:45.715Z,7.08
2023-01-23T17:45:14.215Z,6.99
2023-01-23T17:47:43.887Z,7.32
2023-01-23T17:50:25.588Z,7.44
2023-01-23T17:52:53.293Z,7.45
2023-01-23T17:55:22.858Z,7.01
2023-01-23T17:57:49.900Z,6.65
2023-01-23T18:00:18.993Z,6.66
2023-01-23T18:02:57.212Z,6.59
2023-01-23T18:05:24.630Z,6.46
2023-01-23T18:07:54.134Z,6.39
2023-01-23T18:10:21.978Z,6.33
2023-01-23T18:12:58.285Z,6.53
2023-01-23T18:15:38.937Z,6.64
2023-01-23T18:18:12.365Z,7.12
2023-01-23T18:20:39.367Z,6.85
2023-01-23T18:23:06.344Z,6.53
2023-01-23T18:25:33.186Z,6.77
2023-01-23T18:28:13.593Z,6.53
2023-01-23T18:30:56.264Z,6.82
2023-01-23T18:33:25.563Z,6.38
2023-01-23T18:36:07.829Z,6.43
2023-01-23T18:38:59.188Z,6.75
2023-01-23T18:41:27.998Z,6.55
2023-01-23T18:44:07.378Z,6.63
2023-01-23T18:46:34.353Z,6.59
2023-01-23T18:49:01.258Z,6.40
2023-01-23T18:51:42.823Z,6.21
2023-01-23T18:54:35.775Z,6.25
2023-01-23T18:57:21.125Z,6.18
2023-01-23T19:00:07.814Z,6.20
2023-01-23T19:03:20.928Z,6.12
2023-01-23T19:05:47.807Z,6.10
2023-01-23T19:08:29.873Z,5.97
2023-01-23T19:11:04.719Z,5.94
2023-01-23T19:14:01.220Z,5.96
2023-01-23T19:16:41.662Z,6.01
2023-01-23T19:19:22.984Z,6.09
2023-01-23T19:21:51.258Z,6.24
2023-01-23T19:24:19.527Z,6.42
2023-01-23T19:26:46.501Z,6.14
2023-01-23T19:29:21.621Z,6.02
2023-01-23T19:32:03.626Z,6.02
2023-01-23T19:34:32.165Z,6.00
2023-01-23T19:36:58.790Z,5.81
2023-01-23T19:39:25.417Z,5.80
2023-01-23T19:41:52.714Z,5.73
2023-01-23T19:44:20.939Z,5.97
2023-01-23T19:46:48.808Z,5.84
2023-01-23T19:49:15.453Z,5.76
2023-01-23T19:51:42.333Z,5.93
2023-01-23T19:54:14.017Z,5.77
2023-01-23T19:56:41.109Z,5.67
2023-01-23T19:59:08.396Z,5.60
2023-01-23T20:01:39.000Z,5.90
2023-01-23T20:04:08.009Z,5.64
2023-01-23T20:06:34.752Z,5.57
2023-01-23T20:09:01.340Z,5.57
2023-01-23T20:11:27.949Z,5.78
2023-01-23T20:13:54.599Z,5.58
2023-01-23T20:16:23.821Z,5.50
2023-01-23T20:18:51.393Z,5.62
2023-01-23T20:21:20.385Z,5.96
2023-01-23T20:23:47.646Z,5.62
2023-01-23T20:26:16.175Z,5.55
2023-01-23T20:28:43.268Z,5.63
2023-01-23T20:31:12.161Z,5.29
2023-01-23T20:33:39.440Z,5.15
2023-01-23T20:36:07.328Z,5.12
2023-01-23T20:38:34.055Z,5.00
2023-01-23T20:41:10.288Z,5.02
2023-01-23T20:43:37.217Z,4.85
2023-01-23T20:46:06.135Z,4.92
2023-01-23T20:48:37.180Z,4.98
2023-01-23T20:51:05.498Z,5.00
2023-01-23T20:53:33.042Z,4.91
2023-01-23T20:56:19.211Z,4.86
2023-01-23T20:58:48.084Z,4.97
2023-01-23T21:01:15.266Z,5.27
2023-01-23T21:03:42.058Z,5.32
2023-01-23T21:06:10.284Z,5.45
2023-01-23T21:08:37.607Z,5.24
2023-01-23T21:11:18.354Z,5.23
2023-01-23T21:13:50.688Z,4.94
2023-01-23T21:16:18.137Z,4.75
2023-01-23T21:18:46.074Z,4.54
2023-01-23T21:21:15.818Z,4.57
2023-01-23T21:23:43.031Z,4.50
2023-01-23T21:26:09.738Z,4.52
2023-01-23T21:28:36.450Z,4.76
2023-01-23T21:31:15.362Z,4.80
2023-01-23T21:33:43.217Z,4.89
2023-01-23T21:36:11.376Z,4.75
2023-01-23T21:38:38.406Z,4.68
2023-01-23T21:41:05.454Z,4.95
2023-01-23T21:43:32.294Z,5.05
2023-01-23T21:45:58.961Z,4.84
2023-01-23T21:48:25.800Z,5.10
2023-01-23T21:50:52.441Z,4.93
2023-01-23T21:53:19.037Z,4.91
2023-01-23T21:55:51.805Z,4.97
2023-01-23T21:58:18.469Z,5.06
2023-01-23T22:00:45.069Z,5.06
2023-01-23T22:03:11.679Z,5.06
2023-01-23T22:05:38.337Z,4.87
2023-01-23T22:08:05.076Z,4.79
2023-01-23T22:10:31.923Z,5.03
2023-01-23T22:12:58.646Z,4.79
2023-01-23T22:15:25.542Z,4.82
2023-01-23T22:17:52.374Z,4.63
2023-01-23T22:20:19.013Z,4.26
2023-01-23T22:22:45.590Z,4.30
2023-01-23T22:25:12.304Z,4.13
2023-01-23T22:27:38.950Z,4.39
2023-01-23T22:30:06.301Z,4.49
2023-01-23T22:32:33.656Z,4.48
2023-01-23T22:35:00.266Z,4.43
2023-01-23T22:37:26.851Z,4.60
2023-01-23T22:39:53.579Z,4.75
2023-01-23T22:42:20.352Z,4.81
2023-01-23T22:44:46.940Z,4.58
2023-01-23T22:47:13.733Z,4.59
2023-01-23T22:49:40.403Z,4.80
2023-01-23T22:52:08.542Z,4.67
2023-01-23T22:54:35.967Z,4.84
2023-01-23T22:57:02.587Z,4.96
2023-01-23T22:59:29.302Z,4.99
2023-01-23T23:01:56.058Z,4.54
2023-01-23T23:04:22.686Z,4.43
2023-01-23T23:06:49.326Z,4.71
2023-01-23T23:09:15.949Z,4.81
2023-01-23T23:11:42.624Z,4.87
2023-01-23T23:14:10.186Z,5.02
2023-01-23T23:16:36.869Z,4.66
2023-01-23T23:19:04.469Z,4.66
2023-01-23T23:21:34.114Z,4.45
2023-01-23T23:24:00.878Z,4.41
2023-01-23T23:26:29.567Z,4.35
2023-01-23T23:28:56.305Z,4.35
2023-01-23T23:31:23.297Z,4.35
2023-01-23T23:33:50.116Z,4.37
2023-01-23T23:36:17.584Z,4.24
2023-01-23T23:38:44.308Z,4.13
2023-01-23T23:41:15.603Z,4.13
2023-01-23T23:43:45.361Z,4.24
2023-01-23T23:46:14.077Z,4.34
2023-01-23T23:48:41.038Z,4.33
2023-01-23T23:51:10.431Z,4.12
2023-01-23T23:53:37.062Z,4.03
2023-01-23T23:56:05.013Z,4.09
2023-01-23T23:58:32.622Z,4.06
